BZC weather

Umberto Modiano Airport
Cabo Frio, Rio de Janeiro, Brazil

Public forecast

Using degrees Celsius for public forecast. Weather courtesy of forecast.io.

Current aviation weather report (METAR) for Umberto Modiano Airport

Retrieved UTC (0 seconds ago):

Closest aviation forecast (TAF) to Umberto Modiano Airport

Forecast is more than 12 hours old.

Closest forecast is Cabo Frio Airport, 10.9 nm (20.3 km) SW. Retrieved 2020/03/31 06:45 UTC (13 hours ago):

TAF TAF SBCB 310320Z 3106/0106 09010KT 8000 BKN025 TN22/3109Z TX27/3116Z TEMPO 3106/3112 4000 RA BKN010 OVC025 BECMG 3112/3114 11010KT 9999 SCT020 BECMG 3116/3118 16013KT BECMG 3120/3122 12007KT FEW030 RMK PGB